createdAt,value
2018-11-05T00:00:44.116Z,100649.71
2018-11-05T00:03:09.429Z,100642.09
2018-11-05T00:05:34.537Z,100637.44
2018-11-05T00:07:59.658Z,100638.78
2018-11-05T00:10:24.808Z,100631.92
2018-11-05T00:12:49.900Z,100640.79
2018-11-05T00:15:15.017Z,100634.28
2018-11-05T00:17:40.409Z,100624.24
2018-11-05T00:20:06.056Z,100616.36
2018-11-05T00:22:31.138Z,100624.70
2018-11-05T00:25:15.333Z,100629.80
2018-11-05T00:27:40.784Z,100628.89
2018-11-05T00:30:24.944Z,100627.92
2018-11-05T00:32:50.079Z,100617.28
2018-11-05T00:35:16.980Z,100611.28
2018-11-05T00:37:42.175Z,100609.48
2018-11-05T00:40:27.611Z,100601.27
2018-11-05T00:42:52.820Z,100600.48
2018-11-05T00:45:17.926Z,100601.56
2018-11-05T00:47:43.704Z,100594.31
2018-11-05T00:50:10.845Z,100590.55
2018-11-05T00:52:36.108Z,100582.73
2018-11-05T00:55:01.248Z,100593.34
2018-11-05T00:57:26.395Z,100599.92
2018-11-05T00:59:51.464Z,100596.02
2018-11-05T01:02:16.642Z,100613.42
2018-11-05T01:05:00.876Z,100610.71
2018-11-05T01:07:28.758Z,100598.70
2018-11-05T01:09:53.882Z,100604.20
2018-11-05T01:12:19.012Z,100599.92
2018-11-05T01:15:03.085Z,100596.95
2018-11-05T01:17:28.181Z,100592.66
2018-11-05T01:19:53.351Z,100595.80
2018-11-05T01:22:18.455Z,100592.34
2018-11-05T01:24:43.563Z,100578.66
2018-11-05T01:27:08.643Z,100579.44
2018-11-05T01:29:33.764Z,100580.80
2018-11-05T01:31:58.862Z,100568.98
2018-11-05T01:34:23.967Z,100571.16
2018-11-05T01:36:49.102Z,100580.30
2018-11-05T01:39:14.220Z,100577.69
2018-11-05T01:41:39.404Z,100581.12
2018-11-05T01:44:04.505Z,100585.30
2018-11-05T01:46:29.596Z,100578.58
2018-11-05T01:48:54.716Z,100566.61
2018-11-05T01:51:19.814Z,100560.39
2018-11-05T01:54:03.900Z,100563.75
2018-11-05T01:56:28.956Z,100560.33
2018-11-05T01:58:54.048Z,100560.00
2018-11-05T02:01:19.162Z,100560.39
2018-11-05T02:03:44.293Z,100560.22
2018-11-05T02:06:09.392Z,100552.17
2018-11-05T02:08:34.496Z,100556.82
2018-11-05T02:10:59.598Z,100546.78
2018-11-05T02:13:24.874Z,100546.02
2018-11-05T02:15:49.840Z,100538.22
2018-11-05T02:18:14.845Z,100542.11
2018-11-05T02:20:39.967Z,100537.35
2018-11-05T02:23:05.064Z,100541.17
2018-11-05T02:25:30.200Z,100537.92
2018-11-05T02:28:14.257Z,100536.34
2018-11-05T02:30:39.438Z,100533.20
2018-11-05T02:33:04.488Z,100532.34
2018-11-05T02:35:29.622Z,100525.55
2018-11-05T02:37:54.712Z,100536.59
2018-11-05T02:40:21.096Z,100535.53
2018-11-05T02:42:46.691Z,100525.78
2018-11-05T02:45:13.104Z,100512.08
2018-11-05T02:47:38.603Z,100519.34
2018-11-05T02:50:03.736Z,100513.91
2018-11-05T02:52:28.825Z,100515.33
2018-11-05T02:54:53.986Z,100512.25
2018-11-05T02:57:19.077Z,100517.36
2018-11-05T02:59:44.209Z,100509.47
2018-11-05T03:02:09.334Z,100506.36
2018-11-05T03:04:34.412Z,100450.09
2018-11-05T03:06:59.529Z,100501.69
2018-11-05T03:09:24.606Z,100491.23
2018-11-05T03:11:49.788Z,100497.67
2018-11-05T03:14:15.729Z,100501.92
2018-11-05T03:16:40.937Z,100499.62
2018-11-05T03:19:06.320Z,100501.30
2018-11-05T03:21:31.559Z,100501.74
2018-11-05T03:23:56.647Z,100497.13
2018-11-05T03:26:21.759Z,100492.45
2018-11-05T03:28:46.849Z,100497.73
2018-11-05T03:31:11.969Z,100492.80
2018-11-05T03:33:37.076Z,100502.00
2018-11-05T03:36:02.280Z,100492.27
2018-11-05T03:38:27.350Z,100484.61
2018-11-05T03:41:11.406Z,100494.45
2018-11-05T03:43:55.525Z,100490.12
2018-11-05T03:46:20.624Z,100492.42
2018-11-05T03:48:45.752Z,100484.96
2018-11-05T03:51:10.877Z,100479.88
2018-11-05T03:53:35.984Z,100480.08
2018-11-05T03:56:01.271Z,100480.11
2018-11-05T03:58:26.296Z,100479.44
2018-11-05T04:00:51.483Z,100479.94
2018-11-05T04:03:16.621Z,100476.34
2018-11-05T04:05:41.682Z,100470.94
2018-11-05T04:08:07.007Z,100465.95
2018-11-05T04:10:32.085Z,100462.30
2018-11-05T04:12:57.203Z,100458.88
2018-11-05T04:15:22.364Z,100457.66
2018-11-05T04:17:47.383Z,100452.96
2018-11-05T04:20:13.980Z,100444.64
2018-11-05T04:22:39.082Z,100437.53
2018-11-05T04:25:04.179Z,100441.20
2018-11-05T04:30:22.220Z,100443.64
2018-11-05T04:32:47.405Z,100461.72
2018-11-05T04:35:12.747Z,100457.73
2018-11-05T04:37:38.015Z,100449.42
2018-11-05T04:40:03.126Z,100444.59
2018-11-05T04:42:28.275Z,100440.19
2018-11-05T04:44:53.387Z,100447.24
2018-11-05T04:47:18.519Z,100444.66
2018-11-05T04:49:43.624Z,100441.59
2018-11-05T04:52:08.704Z,100438.16
2018-11-05T04:54:52.804Z,100442.73
2018-11-05T04:57:36.907Z,100433.89
2018-11-05T05:00:10.079Z,100438.00
2018-11-05T05:02:35.177Z,100436.03
2018-11-05T05:05:00.275Z,100424.98
2018-11-05T05:07:37.163Z,100424.06
2018-11-05T05:10:02.279Z,100425.77
2018-11-05T05:12:27.388Z,100422.09
2018-11-05T05:14:52.512Z,100418.52
2018-11-05T05:19:53.833Z,100424.30
2018-11-05T05:22:19.148Z,100417.42
2018-11-05T05:24:44.153Z,100413.73
2018-11-05T05:27:09.290Z,100406.10
2018-11-05T05:29:34.643Z,100403.81
2018-11-05T05:32:18.716Z,100402.13
2018-11-05T05:34:43.937Z,100407.39
2018-11-05T05:37:09.080Z,100408.95
2018-11-05T05:39:34.212Z,100413.58
2018-11-05T05:41:59.314Z,100409.58
2018-11-05T05:44:24.455Z,100412.98
2018-11-05T05:46:49.574Z,100408.17
2018-11-05T05:49:33.669Z,100415.03
2018-11-05T05:51:58.747Z,100418.70
2018-11-05T05:54:23.850Z,100415.25
2018-11-05T05:56:49.010Z,100420.70
2018-11-05T05:59:14.230Z,100419.52
2018-11-05T06:01:39.315Z,100420.91
2018-11-05T06:04:04.448Z,100420.53
2018-11-05T06:06:29.584Z,100418.19
2018-11-05T06:08:54.632Z,100426.17
2018-11-05T06:11:38.769Z,100418.61
2018-11-05T06:14:22.863Z,100428.66
2018-11-05T06:16:48.003Z,100430.98
2018-11-05T06:19:13.286Z,100424.05
2018-11-05T06:21:38.440Z,100423.84
2018-11-05T06:24:03.921Z,100436.09
2018-11-05T06:26:29.065Z,100441.86
2018-11-05T06:28:54.140Z,100442.31
2018-11-05T06:31:19.231Z,100445.03
2018-11-05T06:33:44.320Z,100435.34
2018-11-05T07:04:10.604Z,100430.56
2018-11-05T07:06:35.693Z,100424.33
2018-11-05T07:09:00.842Z,100432.99
2018-11-05T07:11:25.985Z,100431.95
2018-11-05T07:13:51.073Z,100439.89
2018-11-05T07:16:16.180Z,100438.76
2018-11-05T07:18:41.488Z,100439.35
2018-11-05T07:21:06.438Z,100447.52
2018-11-05T07:23:31.584Z,100445.91
2018-11-05T07:25:56.718Z,100446.42
2018-11-05T07:28:21.854Z,100444.23
2018-11-05T07:30:46.973Z,100440.28
2018-11-05T07:33:12.147Z,100448.84
2018-11-05T07:35:37.195Z,100448.47
2018-11-05T07:38:02.301Z,100460.03
2018-11-05T07:40:27.394Z,100455.49
2018-11-05T07:42:52.512Z,100455.00
2018-11-05T07:45:21.821Z,100451.20
2018-11-05T07:47:47.208Z,100447.42
2018-11-05T07:52:49.284Z,100445.17
2018-11-05T07:55:15.616Z,100446.05
2018-11-05T07:57:41.895Z,100443.86
2018-11-05T08:03:07.987Z,100439.03
2018-11-05T08:05:33.141Z,100443.86
2018-11-05T08:08:00.082Z,100437.83
2018-11-05T08:10:25.204Z,100432.11
2018-11-05T08:12:50.304Z,100431.61
2018-11-05T08:15:16.900Z,100431.77
2018-11-05T08:20:21.361Z,100428.07
2018-11-05T08:22:46.490Z,100426.09
2018-11-05T08:25:19.124Z,100425.09
2018-11-05T08:27:44.289Z,100422.14
2018-11-05T08:30:28.421Z,100412.27
2018-11-05T08:32:53.567Z,100407.11
2018-11-05T08:35:18.680Z,100407.14
2018-11-05T08:37:44.925Z,100408.84
2018-11-05T08:40:29.062Z,100404.65
2018-11-05T08:42:54.978Z,100413.69
2018-11-05T08:45:21.563Z,100407.48
2018-11-05T08:47:46.694Z,100405.30
2018-11-05T08:50:13.711Z,100404.39
2018-11-05T08:52:38.898Z,100405.91
2018-11-05T08:55:04.037Z,100400.95
2018-11-05T08:57:29.232Z,100406.41
2018-11-05T08:59:54.340Z,100399.75
2018-11-05T09:02:19.486Z,100401.75
2018-11-05T09:04:44.713Z,100394.77
2018-11-05T09:07:09.732Z,100388.27
2018-11-05T09:09:34.873Z,100385.00
2018-11-05T09:12:00.114Z,100387.59
2018-11-05T09:14:25.198Z,100388.41
2018-11-05T09:16:50.366Z,100395.42
2018-11-05T09:19:15.533Z,100394.95
2018-11-05T09:21:40.698Z,100394.29
2018-11-05T09:24:05.901Z,100399.63
2018-11-05T09:26:49.964Z,100401.78
2018-11-05T09:29:15.081Z,100411.43
2018-11-05T09:31:41.024Z,100407.72
2018-11-05T09:34:06.198Z,100410.48
2018-11-05T09:36:31.296Z,100406.24
2018-11-05T09:41:35.768Z,100412.42
2018-11-05T09:44:00.898Z,100406.70
2018-11-05T09:46:26.148Z,100403.36
2018-11-05T09:48:51.838Z,100416.98
2018-11-05T09:51:16.976Z,100405.55
2018-11-05T09:54:01.089Z,100410.90
2018-11-05T09:56:26.274Z,100418.86
2018-11-05T09:58:51.465Z,100409.87
2018-11-05T10:01:16.635Z,100411.13
2018-11-05T10:04:00.514Z,100405.85
2018-11-05T10:06:26.481Z,100405.38
2018-11-05T10:08:51.594Z,100401.19
2018-11-05T10:11:16.692Z,100351.01
2018-11-05T10:13:41.915Z,100394.82
2018-11-05T10:16:07.315Z,100379.46
2018-11-05T10:18:32.470Z,100396.20
2018-11-05T10:20:57.645Z,100396.24
2018-11-05T10:23:22.767Z,100393.73
2018-11-05T10:25:47.899Z,100391.55
2018-11-05T10:28:13.023Z,100386.30
2018-11-05T10:30:38.176Z,100393.42
2018-11-05T10:33:03.305Z,100392.36
2018-11-05T10:35:47.098Z,100395.83
2018-11-05T10:38:12.274Z,100394.13
2018-11-05T10:40:38.374Z,100383.30
2018-11-05T10:43:03.565Z,100378.36
2018-11-05T10:45:28.698Z,100378.84
2018-11-05T10:47:53.831Z,100367.84
2018-11-05T10:50:19.817Z,100376.98
2018-11-05T10:52:46.357Z,100365.19
2018-11-05T10:55:30.443Z,100363.32
2018-11-05T10:57:55.578Z,100361.92
2018-11-05T11:00:40.466Z,100355.56
2018-11-05T11:03:24.333Z,100359.74
2018-11-05T11:05:49.484Z,100354.61
2018-11-05T11:08:14.669Z,100351.55
2018-11-05T11:10:39.825Z,100345.48
2018-11-05T11:13:05.099Z,100345.97
2018-11-05T11:15:30.197Z,100354.96
2018-11-05T11:17:55.571Z,100354.34
2018-11-05T11:20:20.723Z,100349.70
2018-11-05T11:22:45.883Z,100335.88
2018-11-05T11:25:11.580Z,100333.88
2018-11-05T11:27:36.915Z,100334.02
2018-11-05T11:30:01.968Z,100325.00
2018-11-05T11:32:27.263Z,100311.50
2018-11-05T11:34:52.462Z,100303.58
2018-11-05T11:37:17.758Z,100307.62
2018-11-05T11:39:42.774Z,100300.02
2018-11-05T11:42:07.884Z,100294.44
2018-11-05T11:44:33.003Z,100300.95
2018-11-05T11:46:58.120Z,100303.10
2018-11-05T11:49:23.233Z,100298.92
2018-11-05T11:51:48.359Z,100290.42
2018-11-05T11:54:32.490Z,100290.53
2018-11-05T11:56:57.667Z,100282.77
2018-11-05T11:59:22.756Z,100264.27
2018-11-05T12:02:07.383Z,100258.08
2018-11-05T12:04:32.361Z,100263.33
2018-11-05T12:06:57.461Z,100273.95
2018-11-05T12:09:22.564Z,100281.03
2018-11-05T12:11:47.704Z,100282.93
2018-11-05T12:14:12.900Z,100288.20
2018-11-05T12:16:38.051Z,100285.39
2018-11-05T12:19:03.160Z,100283.83
2018-11-05T12:21:28.269Z,100271.31
2018-11-05T12:23:53.385Z,100273.45
2018-11-05T12:26:18.510Z,100271.78
2018-11-05T12:28:43.669Z,100269.72
2018-11-05T12:31:08.777Z,100268.69
2018-11-05T12:33:35.885Z,100258.08
2018-11-05T12:36:01.077Z,100261.79
2018-11-05T12:38:26.215Z,100259.48
2018-11-05T12:40:51.362Z,100258.05
2018-11-05T12:46:12.314Z,100250.95
2018-11-05T12:48:37.449Z,100252.55
2018-11-05T12:51:02.627Z,100254.44
2018-11-05T12:53:27.715Z,100245.73
2018-11-05T12:55:52.837Z,100246.19
2018-11-05T12:58:17.960Z,100248.41
2018-11-05T13:00:43.105Z,100257.09
2018-11-05T13:03:08.286Z,100246.38
2018-11-05T13:05:33.423Z,100243.23
2018-11-05T13:07:58.520Z,100241.99
2018-11-05T13:10:23.941Z,100231.41
2018-11-05T13:12:49.029Z,100233.30
2018-11-05T13:15:14.292Z,100221.94
2018-11-05T13:17:40.111Z,100226.62
2018-11-05T13:22:42.430Z,100218.88
2018-11-05T13:25:07.568Z,100221.48
2018-11-05T13:27:32.692Z,100216.10
2018-11-05T13:29:57.855Z,100228.04
2018-11-05T13:32:23.000Z,100236.11
2018-11-05T13:34:48.172Z,100230.00
2018-11-05T13:37:13.566Z,100228.77
2018-11-05T13:39:38.516Z,100235.78
2018-11-05T13:42:03.814Z,100235.77
2018-11-05T13:44:29.002Z,100237.11
2018-11-05T13:46:54.500Z,100172.69
2018-11-05T13:49:19.586Z,100239.28
2018-11-05T13:51:44.513Z,100240.02
2018-11-05T13:54:28.693Z,100234.11
2018-11-05T13:56:53.809Z,100228.47
2018-11-05T13:59:18.939Z,100232.67
2018-11-05T14:01:44.081Z,100236.11
2018-11-05T14:04:09.224Z,100238.39
2018-11-05T14:06:34.338Z,100236.59
2018-11-05T14:08:59.502Z,100225.35
2018-11-05T14:11:24.600Z,100220.94
2018-11-05T14:13:49.821Z,100217.05
2018-11-05T14:16:14.826Z,100219.65
2018-11-05T14:18:39.952Z,100209.83
2018-11-05T14:21:05.083Z,100205.08
2018-11-05T14:23:30.167Z,100200.19
2018-11-05T14:25:55.291Z,100192.77
2018-11-05T14:28:20.720Z,100191.16
2018-11-05T14:30:45.578Z,100202.23
2018-11-05T14:33:10.690Z,100202.34
2018-11-05T14:35:35.845Z,100211.67
2018-11-05T14:38:00.957Z,100207.88
2018-11-05T14:40:26.076Z,100210.33
2018-11-05T14:42:51.249Z,100213.09
2018-11-05T14:45:17.700Z,100219.89
2018-11-05T14:47:43.798Z,100227.49
2018-11-05T14:50:10.821Z,100214.81
2018-11-05T14:52:35.920Z,100202.87
2018-11-05T14:55:01.353Z,100197.80
2018-11-05T14:57:26.477Z,100191.70
2018-11-05T14:59:51.553Z,100183.47
2018-11-05T15:02:35.449Z,100181.45
2018-11-05T15:05:00.523Z,100173.36
2018-11-05T15:07:25.715Z,100167.80
2018-11-05T15:09:50.754Z,100170.24
2018-11-05T15:12:15.874Z,100185.81
2018-11-05T15:14:41.042Z,100181.03
2018-11-05T15:17:25.122Z,100185.81
2018-11-05T15:19:50.770Z,100168.42
2018-11-05T15:22:15.463Z,100183.28
2018-11-05T15:24:59.572Z,100179.44
2018-11-05T15:27:24.681Z,100177.59
2018-11-05T15:29:49.787Z,100185.70
2018-11-05T15:32:14.937Z,100183.20
2018-11-05T15:34:40.044Z,100175.30
2018-11-05T15:37:05.196Z,100170.52
2018-11-05T15:39:30.298Z,100174.81
2018-11-05T15:41:55.448Z,100173.17
2018-11-05T15:44:20.590Z,100175.23
2018-11-05T15:46:45.706Z,100165.58
2018-11-05T15:49:10.888Z,100164.27
2018-11-05T15:51:36.339Z,100159.16
2018-11-05T15:54:01.246Z,100169.41
2018-11-05T15:56:26.261Z,100169.09
2018-11-05T15:58:51.405Z,100166.14
2018-11-05T16:01:16.554Z,100161.95
2018-11-05T16:04:00.658Z,100160.27
2018-11-05T16:06:25.800Z,100165.86
2018-11-05T16:08:50.972Z,100161.19
2018-11-05T16:11:16.129Z,100163.07
2018-11-05T16:13:41.276Z,100161.23
2018-11-05T16:16:06.387Z,100162.31
2018-11-05T16:18:31.523Z,100154.88
2018-11-05T16:20:56.603Z,100159.69
2018-11-05T16:23:21.693Z,100153.95
2018-11-05T16:25:46.946Z,100146.69
2018-11-05T16:28:12.006Z,100152.91
2018-11-05T16:30:37.209Z,100138.02
2018-11-05T16:33:02.278Z,100133.55
2018-11-05T16:35:27.529Z,100141.44
2018-11-05T16:37:52.545Z,100148.26
2018-11-05T16:40:18.608Z,100137.89
2018-11-05T16:42:44.338Z,100139.59
2018-11-05T16:45:10.480Z,100145.64
2018-11-05T16:47:35.708Z,100140.84
2018-11-05T16:50:00.864Z,100142.05
2018-11-05T16:52:25.984Z,100142.98
2018-11-05T16:54:51.127Z,100142.23
2018-11-05T16:59:52.987Z,100136.78
2018-11-05T17:02:18.511Z,100131.36
2018-11-05T17:04:44.658Z,100130.56
2018-11-05T17:07:09.828Z,100148.74
2018-11-05T17:09:34.932Z,100147.96
2018-11-05T17:12:00.030Z,100134.61
2018-11-05T17:14:25.162Z,100128.86
2018-11-05T17:16:50.308Z,100131.34
2018-11-05T17:19:15.488Z,100121.91
2018-11-05T17:21:40.540Z,100133.83
2018-11-05T17:24:05.968Z,100131.96
2018-11-05T17:26:31.617Z,100142.03
2018-11-05T17:28:56.769Z,100133.22
2018-11-05T17:31:21.907Z,100128.70
2018-11-05T17:34:06.007Z,100120.81
2018-11-05T17:36:31.159Z,100126.41
2018-11-05T17:38:56.277Z,100126.41
2018-11-05T17:41:21.389Z,100114.63
2018-11-05T17:43:46.504Z,100117.40
2018-11-05T17:46:11.703Z,100108.72
2018-11-05T17:48:36.812Z,100103.94
2018-11-05T17:51:01.939Z,100103.94
2018-11-05T17:53:27.082Z,100101.28
2018-11-05T17:55:52.181Z,100103.16
2018-11-05T17:58:17.298Z,100091.05
2018-11-05T18:00:42.457Z,100092.93
2018-11-05T18:03:07.580Z,100100.20
2018-11-05T18:05:32.761Z,100101.59
2018-11-05T18:07:57.868Z,100091.23
2018-11-05T18:10:23.014Z,100095.41
2018-11-05T18:12:48.518Z,100094.93
2018-11-05T18:15:13.989Z,100096.19
2018-11-05T18:17:39.772Z,100090.76
2018-11-05T18:20:05.149Z,100088.28
2018-11-05T18:22:30.285Z,100087.97
2018-11-05T18:24:55.442Z,100085.48
2018-11-05T18:27:20.551Z,100090.15
2018-11-05T18:29:45.655Z,100080.84
2018-11-05T18:32:29.740Z,100074.31
2018-11-05T18:34:54.869Z,100078.97
2018-11-05T18:37:20.013Z,100081.14
2018-11-05T18:39:45.472Z,100078.50
2018-11-05T18:42:10.650Z,100072.78
2018-11-05T18:44:35.769Z,100065.52
2018-11-05T18:47:00.925Z,100069.86
2018-11-05T18:49:26.041Z,100072.17
2018-11-05T18:51:51.323Z,100058.84
2018-11-05T18:54:16.401Z,100051.55
2018-11-05T18:56:41.616Z,100044.75
2018-11-05T18:59:07.230Z,100047.56
2018-11-05T19:01:32.380Z,100035.30
2018-11-05T19:03:57.954Z,100036.09
2018-11-05T19:06:23.123Z,100028.79
2018-11-05T19:08:48.268Z,100033.30
2018-11-05T19:11:13.446Z,100032.38
2018-11-05T19:13:38.601Z,100029.59
2018-11-05T19:16:03.817Z,100029.59
2018-11-05T19:18:40.356Z,100028.79
2018-11-05T19:21:05.533Z,100032.83
2018-11-05T19:23:30.913Z,100030.83
2018-11-05T19:25:55.824Z,100036.53
2018-11-05T19:28:21.077Z,100023.07
2018-11-05T19:30:46.101Z,100036.39
2018-11-05T19:33:11.241Z,100032.22
2018-11-05T19:35:36.362Z,100034.09
2018-11-05T19:38:01.542Z,100036.25
2018-11-05T19:40:26.740Z,100022.77
2018-11-05T19:42:52.054Z,100024.64
2018-11-05T19:45:18.661Z,100026.81
2018-11-05T19:47:43.925Z,100031.13
2018-11-05T19:50:11.681Z,100025.86
2018-11-05T19:52:36.859Z,100020.92
2018-11-05T19:55:02.034Z,100018.45
2018-11-05T19:57:27.172Z,100016.89
2018-11-05T19:59:52.339Z,100012.41
2018-11-05T20:02:17.574Z,100007.00
2018-11-05T20:05:01.626Z,100010.23
2018-11-05T20:07:27.528Z,100011.31
2018-11-05T20:09:52.619Z,100011.94
2018-11-05T20:12:17.760Z,100014.27
2018-11-05T20:14:42.859Z,100007.92
2018-11-05T20:17:08.037Z,100010.23
2018-11-05T20:19:33.165Z,100006.84
2018-11-05T20:21:58.393Z,100009.01
2018-11-05T20:24:23.551Z,100006.22
2018-11-05T20:26:48.704Z,100008.55
2018-11-05T20:29:13.856Z,100005.89
2018-11-05T20:31:39.197Z,100003.58
2018-11-05T20:34:04.549Z,100007.59
2018-11-05T20:36:29.319Z,100015.50
2018-11-05T20:38:54.518Z,100015.34
2018-11-05T20:41:19.694Z,100010.98
2018-11-05T20:43:44.867Z,100009.16
2018-11-05T20:46:09.959Z,100009.63
2018-11-05T20:48:35.133Z,100010.06
2018-11-05T20:51:00.282Z,100006.98
2018-11-05T20:53:25.409Z,100002.80
2018-11-05T20:55:50.726Z,100008.38
2018-11-05T20:58:15.875Z,100007.15
2018-11-05T21:00:41.112Z,100005.59
2018-11-05T21:03:06.195Z,100009.26
2018-11-05T21:05:31.345Z,100002.77
2018-11-05T21:07:56.473Z,100005.55
2018-11-05T21:10:21.572Z,100004.94
2018-11-05T21:12:46.721Z,100004.64
2018-11-05T21:15:30.563Z,99997.03
2018-11-05T21:17:55.796Z,99999.20
2018-11-05T21:20:20.769Z,100011.11
2018-11-05T21:22:46.442Z,100011.82
2018-11-05T21:25:11.332Z,100019.06
2018-11-05T21:27:36.437Z,100020.45
2018-11-05T21:30:01.572Z,100025.25
2018-11-05T21:32:26.705Z,100015.98
2018-11-05T21:34:51.853Z,100005.45
2018-11-05T21:37:16.987Z,99993.84
2018-11-05T21:39:42.101Z,100000.47
2018-11-05T21:42:07.300Z,100002.60
2018-11-05T21:44:32.414Z,100000.22
2018-11-05T21:46:57.562Z,100002.72
2018-11-05T21:49:22.697Z,99999.63
2018-11-05T21:51:47.788Z,100005.64
2018-11-05T21:54:12.938Z,100000.68
2018-11-05T21:56:38.045Z,99998.42
2018-11-05T21:59:03.202Z,100001.47
2018-11-05T22:01:28.294Z,99995.39
2018-11-05T22:03:53.460Z,100002.86
2018-11-05T22:06:18.591Z,100006.97
2018-11-05T22:08:43.717Z,100002.06
2018-11-05T22:11:27.835Z,100002.20
2018-11-05T22:13:52.995Z,100001.11
2018-11-05T22:16:18.533Z,99995.39
2018-11-05T22:18:43.683Z,99999.36
2018-11-05T22:21:08.822Z,100002.39
2018-11-05T22:23:52.962Z,99997.00
2018-11-05T22:26:18.054Z,99992.11
2018-11-05T22:28:43.158Z,99980.02
2018-11-05T22:31:20.090Z,99981.53
2018-11-05T22:33:45.171Z,99983.06
2018-11-05T22:36:10.352Z,99989.45
2018-11-05T22:38:35.535Z,99988.45
2018-11-05T22:41:19.666Z,99982.67
2018-11-05T22:43:44.823Z,99977.38
2018-11-05T22:46:09.953Z,99984.89
2018-11-05T22:48:35.081Z,99985.98
2018-11-05T22:51:00.199Z,99997.25
2018-11-05T22:53:25.350Z,99990.94
2018-11-05T22:55:50.472Z,99994.62
2018-11-05T22:58:15.580Z,99987.49
2018-11-05T23:00:59.443Z,100004.00
2018-11-05T23:03:43.247Z,100005.97
2018-11-05T23:06:08.368Z,100012.33
2018-11-05T23:08:33.483Z,100007.79
2018-11-05T23:10:58.713Z,100008.70
2018-11-05T23:13:23.842Z,100005.61
2018-11-05T23:15:48.950Z,100001.58
2018-11-05T23:18:14.171Z,100003.75
2018-11-05T23:20:39.230Z,100006.76
2018-11-05T23:23:04.355Z,100010.34
2018-11-05T23:25:29.486Z,100005.55
2018-11-05T23:27:54.585Z,100007.57
2018-11-05T23:30:19.723Z,100007.11
2018-11-05T23:32:44.826Z,100002.52
2018-11-05T23:35:10.810Z,99994.69
2018-11-05T23:42:50.555Z,100001.53
2018-11-05T23:45:16.578Z,100001.02
2018-11-05T23:47:41.801Z,100006.72
2018-11-05T23:50:07.651Z,100004.38
2018-11-05T23:52:32.757Z,100003.98
2018-11-05T23:54:57.934Z,100012.55
2018-11-05T23:57:23.666Z,100010.78
2018-11-05T23:59:48.813Z,100013.80
